Time;durP1;ratioP1;P1;durP2;ratioP2;P2;SDS_P1;SDS_P2;PMS_P1;PMS_P2;Temp;Humidity;BMP_temperature;BMP_pressure;BME280_temperature;BME280_humidity;BME280_pressure;Samples;Min_cycle;Max_cycle;Signal;HPM_P1;HPM_P2
2023/06/10 00:02:10;;;;;;;9.80;8.98;;;;;;;24.32;44.08;101288.81;4986719;28;20523;-82
2023/06/10 00:04:36;;;;;;;9.45;8.52;;;;;;;24.40;43.38;101286.31;4982015;28;20576;-82
2023/06/10 00:07:03;;;;;;;9.98;8.98;;;;;;;24.42;43.79;101283.44;4986338;28;20046;-82
2023/06/10 00:09:29;;;;;;;10.05;9.02;;;;;;;24.39;43.64;101278.34;4983448;28;21697;-82
2023/06/10 00:11:54;;;;;;;10.90;9.05;;;;;;;24.42;43.27;101284.28;4982742;28;20030;-82
2023/06/10 00:14:19;;;;;;;9.80;8.90;;;;;;;24.38;43.57;101282.00;4982005;28;20589;-82
2023/06/10 00:16:45;;;;;;;10.52;9.40;;;;;;;24.26;44.10;101289.38;4981900;28;20030;-82
2023/06/10 00:19:13;;;;;;;10.15;9.13;;;;;;;24.17;45.87;101284.81;4981741;28;20072;-82
2023/06/10 00:21:40;;;;;;;11.35;9.15;;;;;;;24.07;45.37;101284.78;4986732;28;20035;-82
2023/06/10 00:24:13;;;;;;;13.02;9.70;;;;;;;24.05;44.41;101281.34;4980050;28;20386;-82
2023/06/10 00:26:40;;;;;;;10.82;9.20;;;;;;;23.89;45.47;101286.44;4985480;28;20457;-82
2023/06/10 00:29:06;;;;;;;10.55;9.50;;;;;;;23.92;44.50;101286.13;4981767;28;20482;-82
2023/06/10 00:31:31;;;;;;;10.68;9.45;;;;;;;23.92;44.78;101289.72;4986737;28;20037;-82
2023/06/10 00:33:56;;;;;;;10.00;9.00;;;;;;;23.92;45.08;101286.13;4980411;28;20037;-82
2023/06/10 00:36:22;;;;;;;10.98;8.75;;;;;;;23.84;45.37;101286.00;4983481;28;20096;-82
2023/06/10 00:38:47;;;;;;;9.88;8.88;;;;;;;23.75;45.33;101289.50;4985812;28;20037;-82
2023/06/10 00:41:12;;;;;;;10.15;9.07;;;;;;;23.73;45.36;101297.72;4983240;28;20022;-82
2023/06/10 00:43:38;;;;;;;11.13;10.02;;;;;;;23.45;45.75;101299.25;4981471;28;20018;-82
2023/06/10 00:46:04;;;;;;;12.90;10.32;;;;;;;23.28;46.12;101295.34;4982196;28;20050;-82
2023/06/10 00:48:30;;;;;;;13.05;11.13;;;;;;;23.19;46.36;101298.84;4974907;28;20036;-82
2023/06/10 00:50:56;;;;;;;11.57;10.48;;;;;;;23.27;47.72;101290.06;4984813;28;20018;-82
2023/06/10 00:53:22;;;;;;;11.75;10.55;;;;;;;23.21;47.80;101299.56;4975296;28;20043;-82
2023/06/10 00:55:48;;;;;;;11.13;10.00;;;;;;;23.19;47.93;101298.84;4967659;28;20044;-82
2023/06/10 00:58:13;;;;;;;10.68;9.57;;;;;;;23.24;46.35;101296.59;4985739;28;20535;-82
2023/06/10 01:00:39;;;;;;;12.55;10.50;;;;;;;23.21;47.12;101296.84;4976797;28;20034;-82
2023/06/10 01:03:07;;;;;;;12.00;10.85;;;;;;;23.13;46.98;101288.59;4980993;28;20041;-82
2023/06/10 01:05:34;;;;;;;13.30;12.00;;;;;;;23.03;47.00;101296.59;4982300;28;20045;-82
2023/06/10 01:08:28;;;;;;;13.18;11.98;;;;;;;23.06;47.24;101288.25;4984859;28;20116;-82
2023/06/10 01:10:59;;;;;;;12.82;11.57;;;;;;;22.97;46.57;101293.56;4978375;28;20105;-82
2023/06/10 01:13:28;;;;;;;14.10;12.23;;;;;;;22.94;47.32;101296.53;4980238;28;20140;-82
2023/06/10 01:15:54;;;;;;;12.45;11.25;;;;;;;22.86;49.20;101302.56;4980303;28;20022;-82
2023/06/10 01:18:21;;;;;;;13.48;12.20;;;;;;;22.77;47.81;101314.09;4981237;28;20022;-82
2023/06/10 01:20:48;;;;;;;14.45;11.65;;;;;;;22.61;48.82;101298.34;4986947;28;20043;-82
2023/06/10 01:23:15;;;;;;;13.60;12.40;;;;;;;22.57;48.19;101295.06;4983761;28;20405;-82
2023/06/10 01:25:55;;;;;;;12.68;11.38;;;;;;;22.59;47.59;101301.19;4978877;28;20030;-82
2023/06/10 01:28:36;;;;;;;14.10;12.65;;;;;;;22.44;47.94;101301.63;4980991;28;20038;-82
2023/06/10 01:31:23;;;;;;;13.88;11.63;;;;;;;22.35;48.33;101312.16;4980789;28;20026;-82
2023/06/10 01:33:52;;;;;;;13.15;11.85;;;;;;;22.17;49.17;101305.59;4980605;28;20038;-82
2023/06/10 01:36:19;;;;;;;12.10;10.80;;;;;;;22.05;49.34;101317.31;4982522;28;20026;-82
2023/06/10 01:38:47;;;;;;;12.38;11.07;;;;;;;22.03;49.01;101309.38;4981774;28;20068;-82
2023/06/10 01:41:14;;;;;;;11.05;9.95;;;;;;;21.86;49.35;101302.63;4967508;28;20034;-82
2023/06/10 01:43:39;;;;;;;11.30;10.13;;;;;;;21.80;49.71;101302.28;4980162;28;20069;-82
2023/06/10 01:46:05;;;;;;;11.95;10.63;;;;;;;21.70;49.97;101306.69;4984302;28;20138;-82
2023/06/10 01:48:32;;;;;;;11.63;10.52;;;;;;;21.74;49.99;101300.09;4982079;28;20025;-82
2023/06/10 01:50:57;;;;;;;15.27;12.65;;;;;;;21.76;49.94;101303.50;4968860;28;20385;-82
2023/06/10 01:53:23;;;;;;;14.85;13.13;;;;;;;21.77;49.82;101306.06;4987178;28;20022;-82
2023/06/10 01:55:48;;;;;;;18.20;13.93;;;;;;;21.72;49.52;101310.97;4986336;28;20473;-82
2023/06/10 01:58:13;;;;;;;14.95;13.45;;;;;;;21.73;50.08;101310.00;4989879;28;20096;-82
2023/06/10 02:00:39;;;;;;;14.88;13.32;;;;;;;21.75;49.61;101297.28;4986531;28;20501;-82
2023/06/10 02:03:04;;;;;;;14.13;12.68;;;;;;;21.74;50.02;101300.94;4988346;28;20030;-82
2023/06/10 02:05:30;;;;;;;15.05;13.40;;;;;;;21.70;50.41;101304.84;4987862;28;20043;-82
2023/06/10 02:07:55;;;;;;;13.30;11.75;;;;;;;21.53;50.55;101306.19;4987218;28;20035;-82
2023/06/10 02:10:20;;;;;;;13.82;11.40;;;;;;;21.49;50.66;101318.16;4988359;28;20030;-82
2023/06/10 02:12:45;;;;;;;12.88;11.65;;;;;;;21.44;51.50;101312.28;4991443;28;20095;-82
2023/06/10 02:15:11;;;;;;;13.23;11.27;;;;;;;21.42;50.77;101313.41;4986655;28;20014;-82
2023/06/10 02:17:37;;;;;;;12.32;11.13;;;;;;;21.48;50.46;101312.91;4969166;28;20030;-82
2023/06/10 02:20:04;;;;;;;14.55;11.43;;;;;;;21.42;51.52;101308.03;4983104;28;20030;-82
2023/06/10 02:22:29;;;;;;;13.27;11.60;;;;;;;21.39;51.33;101320.72;4988725;28;20058;-82
2023/06/10 02:24:54;;;;;;;12.70;11.50;;;;;;;21.33;51.14;101318.50;4988139;28;20124;-82
2023/06/10 02:27:20;;;;;;;13.23;11.80;;;;;;;21.27;52.11;101310.91;4990078;28;20054;-82
2023/06/10 02:29:45;;;;;;;12.88;11.63;;;;;;;21.09;52.28;101320.38;4988975;28;20023;-82
2023/06/10 02:32:10;;;;;;;16.48;11.95;;;;;;;20.97;52.33;101318.63;4983652;28;20061;-82
2023/06/10 02:34:36;;;;;;;12.88;11.45;;;;;;;21.03;52.23;101323.53;4982788;28;20212;-82
2023/06/10 02:37:02;;;;;;;13.43;11.73;;;;;;;21.13;51.76;101319.19;4985870;28;20385;-82
2023/06/10 02:39:28;;;;;;;15.02;12.05;;;;;;;21.06;52.31;101320.59;4986945;28;20033;-82
2023/06/10 02:41:53;;;;;;;13.90;11.93;;;;;;;21.00;52.71;101324.63;4990609;28;20073;-82
2023/06/10 02:44:19;;;;;;;16.70;12.38;;;;;;;21.07;51.86;101322.31;4990054;28;20512;-82
2023/06/10 02:46:45;;;;;;;13.73;12.32;;;;;;;21.05;52.50;101318.91;4982591;28;20052;-82
2023/06/10 02:49:11;;;;;;;15.20;12.45;;;;;;;21.03;53.53;101326.22;4981344;28;20099;-82
2023/06/10 02:51:36;;;;;;;14.75;13.15;;;;;;;20.98;53.18;101318.50;4984466;28;20540;-82
2023/06/10 02:54:02;;;;;;;15.77;13.30;;;;;;;20.98;52.77;101325.72;4992156;28;20026;-82
2023/06/10 02:56:27;;;;;;;14.70;13.30;;;;;;;20.93;53.13;101320.69;4985957;28;20030;-82
2023/06/10 02:58:53;;;;;;;14.93;12.80;;;;;;;20.79;53.78;101323.56;4987260;28;20030;-82
2023/06/10 03:01:18;;;;;;;13.05;11.88;;;;;;;20.82;52.77;101324.19;4984667;28;20037;-82
2023/06/10 03:03:46;;;;;;;18.92;12.25;;;;;;;20.80;53.17;101320.78;4983634;28;20065;-82
2023/06/10 03:06:12;;;;;;;13.75;12.32;;;;;;;20.86;52.94;101324.81;4978720;28;20061;-82
2023/06/10 03:08:38;;;;;;;15.25;13.57;;;;;;;20.87;53.44;101318.47;4985922;28;20034;-82
2023/06/10 03:11:03;;;;;;;12.93;11.50;;;;;;;20.88;53.41;101326.41;4987421;28;20042;-82
2023/06/10 03:13:28;;;;;;;14.27;12.88;;;;;;;20.80;53.83;101327.97;4986019;28;20014;-82
2023/06/10 03:15:54;;;;;;;12.98;11.57;;;;;;;20.79;54.17;101321.72;4990814;28;20026;-82
2023/06/10 03:18:20;;;;;;;14.85;12.50;;;;;;;20.79;53.49;101327.09;4983114;28;20508;-82
2023/06/10 03:20:45;;;;;;;15.45;12.77;;;;;;;20.73;54.75;101326.72;4980091;28;20042;-82
2023/06/10 03:23:11;;;;;;;14.05;12.65;;;;;;;20.67;54.56;101328.03;4984229;28;20109;-82
2023/06/10 03:25:36;;;;;;;14.63;13.00;;;;;;;20.59;54.95;101325.91;4985444;28;20026;-82
2023/06/10 03:28:01;;;;;;;13.45;12.02;;;;;;;20.66;55.00;101331.72;4982680;28;20049;-82
2023/06/10 03:30:27;;;;;;;14.23;12.73;;;;;;;20.54;54.75;101332.59;4981302;28;20061;-82
2023/06/10 03:32:53;;;;;;;14.73;13.40;;;;;;;20.31;55.73;101332.44;4987511;28;20053;-82
2023/06/10 03:35:18;;;;;;;14.55;13.07;;;;;;;20.27;55.59;101335.47;4987509;28;20474;-82
2023/06/10 03:37:44;;;;;;;15.80;13.05;;;;;;;20.31;56.05;101342.31;4986149;28;20039;-82
2023/06/10 03:40:09;;;;;;;16.35;13.30;;;;;;;20.22;56.04;101341.16;4985887;28;20081;-82
2023/06/10 03:42:35;;;;;;;14.60;12.88;;;;;;;20.27;56.03;101349.72;4966663;28;20476;-82
2023/06/10 03:45:01;;;;;;;14.90;13.18;;;;;;;20.17;56.19;101342.47;4979285;28;20034;-82
2023/06/10 03:47:26;;;;;;;13.35;12.02;;;;;;;20.27;55.52;101344.38;4982875;28;20049;-82
2023/06/10 03:49:52;;;;;;;14.93;12.48;;;;;;;20.27;55.97;101336.31;4981541;28;20473;-82
2023/06/10 03:52:18;;;;;;;16.10;12.95;;;;;;;20.38;55.74;101349.84;4991772;28;20587;-82
2023/06/10 03:54:43;;;;;;;14.07;12.68;;;;;;;20.31;55.80;101348.53;4988558;28;20377;-82
2023/06/10 03:57:08;;;;;;;15.10;13.48;;;;;;;20.31;55.93;101345.00;4991992;28;20077;-82
2023/06/10 03:59:33;;;;;;;16.58;13.07;;;;;;;20.26;56.19;101348.03;4988052;28;20495;-82
2023/06/10 04:02:00;;;;;;;15.13;13.52;;;;;;;20.13;56.42;101347.19;4986569;28;20037;-82
2023/06/10 04:04:25;;;;;;;16.85;12.93;;;;;;;20.15;56.73;101344.41;4964393;28;20026;-82
2023/06/10 04:06:52;;;;;;;18.23;13.15;;;;;;;20.19;55.88;101344.09;4986818;28;20041;-82
2023/06/10 04:09:18;;;;;;;16.05;14.35;;;;;;;20.07;57.56;101343.13;4988312;28;20034;-82
2023/06/10 04:11:43;;;;;;;15.20;12.73;;;;;;;20.22;56.28;101345.69;4970871;28;20367;-82
2023/06/10 04:14:08;;;;;;;15.00;12.95;;;;;;;20.24;56.87;101349.97;4987351;28;20105;-82
2023/06/10 04:16:34;;;;;;;14.45;12.95;;;;;;;20.32;56.08;101339.50;4983377;28;20046;-82
2023/06/10 04:19:00;;;;;;;15.38;13.65;;;;;;;20.33;55.93;101353.78;4988633;28;20060;-82
2023/06/10 04:21:26;;;;;;;18.70;13.48;;;;;;;20.24;56.65;101355.34;4983122;28;20026;-82
2023/06/10 04:23:51;;;;;;;15.45;13.85;;;;;;;20.22;56.43;101356.41;4988485;28;20037;-82
2023/06/10 04:26:16;;;;;;;15.98;14.32;;;;;;;20.32;56.03;101358.31;4982157;28;20936;-82
2023/06/10 04:28:43;;;;;;;17.10;14.57;;;;;;;20.31;56.95;101358.44;4988789;28;20113;-82
2023/06/10 04:31:08;;;;;;;18.20;15.98;;;;;;;20.18;57.29;101368.34;4980818;28;20286;-82
2023/06/10 04:33:34;;;;;;;16.83;14.15;;;;;;;20.21;56.87;101358.25;4981396;28;20018;-82
2023/06/10 04:35:59;;;;;;;18.95;16.75;;;;;;;20.27;56.56;101373.06;4982847;28;20030;-82
2023/06/10 04:38:24;;;;;;;16.80;15.10;;;;;;;20.30;56.01;101376.38;4982122;28;20461;-82
2023/06/10 04:40:50;;;;;;;20.58;17.50;;;;;;;20.35;56.86;101368.84;4986686;28;20048;-82
2023/06/10 04:43:15;;;;;;;16.02;13.80;;;;;;;20.51;55.32;101375.81;4986181;28;20445;-82
2023/06/10 04:45:44;;;;;;;19.10;15.52;;;;;;;20.48;56.20;101381.41;4961177;28;20121;-82
2023/06/10 04:48:10;;;;;;;17.23;15.38;;;;;;;20.44;56.22;101374.53;4978600;28;20034;-82
2023/06/10 04:50:36;;;;;;;16.45;14.35;;;;;;;20.72;55.72;101374.22;4983925;28;20367;-82
2023/06/10 04:53:01;;;;;;;15.60;13.15;;;;;;;20.78;55.07;101383.66;4980038;28;20520;-82
2023/06/10 04:55:26;;;;;;;14.00;12.40;;;;;;;20.84;54.65;101373.31;4984493;28;20019;-82
2023/06/10 04:57:52;;;;;;;14.13;12.73;;;;;;;20.92;54.70;101371.88;4985762;28;20026;-82
2023/06/10 05:00:17;;;;;;;13.50;11.98;;;;;;;20.95;55.03;101369.81;4981357;28;20027;-82
2023/06/10 05:02:42;;;;;;;14.80;11.68;;;;;;;20.98;54.21;101371.41;4973490;28;21592;-82
2023/06/10 05:05:08;;;;;;;15.20;11.63;;;;;;;21.04;54.28;101382.56;4980944;28;20050;-82
2023/06/10 05:07:33;;;;;;;12.52;11.23;;;;;;;21.03;54.29;101375.50;4983548;28;20026;-82
2023/06/10 05:09:58;;;;;;;12.05;10.77;;;;;;;21.12;53.93;101373.91;4983892;28;20022;-82
2023/06/10 05:12:24;;;;;;;13.93;11.95;;;;;;;21.20;54.39;101379.56;4984074;28;20034;-82
2023/06/10 05:14:49;;;;;;;14.05;11.13;;;;;;;21.17;54.14;101374.44;4979595;28;20014;-82
2023/06/10 05:17:15;;;;;;;13.38;11.23;;;;;;;21.28;53.50;101377.16;4983104;28;20508;-82
2023/06/10 05:19:41;;;;;;;12.40;11.10;;;;;;;21.28;53.69;101379.00;4980188;28;20034;-82
2023/06/10 05:22:06;;;;;;;12.73;11.30;;;;;;;21.30;54.77;101374.34;4978937;28;20054;-82
2023/06/10 05:24:32;;;;;;;13.10;11.10;;;;;;;21.35;53.46;101378.41;4983225;28;20054;-82
2023/06/10 05:26:57;;;;;;;15.88;11.48;;;;;;;21.43;53.10;101382.34;4982822;28;20030;-82
2023/06/10 05:29:22;;;;;;;11.95;10.75;;;;;;;21.47;52.83;101378.47;4981685;28;20030;-82
2023/06/10 05:31:48;;;;;;;14.48;11.98;;;;;;;21.53;52.75;101377.97;4980170;28;20052;-82
2023/06/10 05:34:13;;;;;;;12.88;10.82;;;;;;;21.58;52.62;101384.72;4980791;28;20466;-82
2023/06/10 05:36:38;;;;;;;12.40;10.70;;;;;;;21.67;52.42;101377.75;4987390;28;20023;-82
2023/06/10 05:39:04;;;;;;;14.43;11.38;;;;;;;21.70;52.70;101376.66;4967774;28;20030;-82
2023/06/10 05:41:29;;;;;;;15.98;11.60;;;;;;;21.72;53.27;101375.56;4983014;28;20040;-82
2023/06/10 05:43:54;;;;;;;15.60;12.25;;;;;;;21.76;52.55;101377.03;4979558;28;20034;-82
2023/06/10 05:46:20;;;;;;;13.15;10.50;;;;;;;21.80;52.50;101369.56;4985663;28;20045;-83
2023/06/10 05:48:45;;;;;;;13.98;11.02;;;;;;;21.79;52.36;101371.41;4991714;28;20049;-82
2023/06/10 05:51:11;;;;;;;16.88;11.60;;;;;;;21.83;52.13;101374.72;4994274;28;20057;-83
2023/06/10 05:53:36;;;;;;;14.43;12.02;;;;;;;21.95;51.46;101383.66;4990704;28;20029;-82
2023/06/10 05:56:02;;;;;;;15.57;11.63;;;;;;;21.99;52.48;101387.81;4991472;28;20084;-82
2023/06/10 05:58:27;;;;;;;15.93;11.85;;;;;;;22.03;51.46;101386.59;4993090;28;20445;-83
2023/06/10 06:00:52;;;;;;;16.02;11.15;;;;;;;22.09;51.45;101381.56;5000191;28;20034;-83
2023/06/10 06:03:18;;;;;;;15.07;11.45;;;;;;;22.08;51.83;101382.56;4991251;28;20079;-82
2023/06/10 06:05:43;;;;;;;14.35;11.60;;;;;;;22.20;51.55;101379.91;4989784;28;20043;-83
2023/06/10 06:08:09;;;;;;;14.25;10.40;;;;;;;22.26;50.99;101388.34;4989350;28;20028;-83
2023/06/10 06:10:35;;;;;;;13.43;11.90;;;;;;;22.33;51.08;101386.84;4970218;28;20029;-82
2023/06/10 06:13:01;;;;;;;15.65;10.63;;;;;;;22.41;50.97;101392.47;4987498;28;20050;-82
2023/06/10 06:15:26;;;;;;;14.27;11.00;;;;;;;22.34;49.96;101387.72;4989058;28;20359;-83
2023/06/10 06:17:55;;;;;;;14.63;11.27;;;;;;;22.50;51.10;101382.78;4987001;28;20053;-82
2023/06/10 06:20:21;;;;;;;11.60;10.40;;;;;;;22.82;49.55;101381.97;4990488;28;20030;-82
2023/06/10 06:22:46;;;;;;;14.52;10.45;;;;;;;23.00;49.45;101387.72;4990187;28;20030;-83
2023/06/10 06:25:12;;;;;;;14.77;10.23;;;;;;;23.13;49.09;101391.94;4988413;28;20034;-83
2023/06/10 06:27:37;;;;;;;14.02;11.05;;;;;;;23.22;48.57;101389.44;4986891;28;20030;-83
2023/06/10 06:30:03;;;;;;;14.15;10.70;;;;;;;23.27;49.37;101392.59;4990633;28;20733;-82
2023/06/10 06:32:28;;;;;;;13.93;10.68;;;;;;;23.40;48.57;101394.13;4983899;28;20058;-83
2023/06/10 06:34:54;;;;;;;10.57;9.48;;;;;;;23.67;47.24;101395.47;4973385;28;20465;-82
2023/06/10 06:37:26;;;;;;;56.75;14.18;;;;;;;23.80;47.43;101398.81;4990478;28;20081;-83
2023/06/10 06:39:52;;;;;;;;;;;;;;;24.03;46.89;101391.41;4992853;28;20041;-83
2023/06/10 06:42:17;;;;;;;14.52;10.13;;;;;;;23.96;46.80;101392.91;4984542;28;20340;-83
2023/06/10 06:44:43;;;;;;;14.85;10.25;;;;;;;24.04;46.93;101400.34;4982413;28;20061;-83
2023/06/10 06:47:09;;;;;;;12.02;9.95;;;;;;;24.14;47.16;101393.16;4984020;28;20120;-83
2023/06/10 06:49:34;;;;;;;14.65;10.15;;;;;;;24.32;46.19;101386.09;4983232;28;20026;-83
2023/06/10 06:51:59;;;;;;;11.38;9.73;;;;;;;24.49;47.17;101389.19;4988223;28;20026;-83
2023/06/10 06:54:25;;;;;;;13.13;9.50;;;;;;;24.83;46.77;101395.06;4970511;28;20339;-82
2023/06/10 06:56:50;;;;;;;11.40;8.85;;;;;;;24.80;47.13;101398.88;4987420;28;20033;-82
2023/06/10 06:59:17;;;;;;;14.32;8.93;;;;;;;24.97;46.18;101400.06;4981742;28;20058;-83
2023/06/10 07:01:42;;;;;;;14.05;9.68;;;;;;;24.97;43.85;101397.34;4980332;28;20060;-83
2023/06/10 07:04:07;;;;;;;12.95;9.05;;;;;;;25.06;44.76;101403.78;4985326;28;20462;-83
2023/06/10 07:06:33;;;;;;;12.88;9.07;;;;;;;24.97;44.81;101400.06;4980534;28;20054;-83
2023/06/10 07:08:58;;;;;;;12.73;8.87;;;;;;;25.00;47.78;101407.91;4986698;28;20030;-82
2023/06/10 07:11:23;;;;;;;15.00;9.38;;;;;;;24.99;44.07;101406.16;4983679;28;20277;-82
2023/06/10 07:13:49;;;;;;;11.43;9.23;;;;;;;25.13;43.83;101404.94;4981105;28;20068;-82
2023/06/10 07:16:14;;;;;;;13.18;9.15;;;;;;;25.26;44.02;101410.91;4985213;28;20477;-83
2023/06/10 07:18:40;;;;;;;14.65;9.75;;;;;;;25.23;44.94;101411.22;4986734;28;20184;-83
2023/06/10 07:21:05;;;;;;;14.32;9.80;;;;;;;25.16;42.81;101418.19;4979487;28;20027;-82
2023/06/10 07:23:30;;;;;;;12.20;8.85;;;;;;;25.55;44.51;101415.44;4986510;28;20033;-83
2023/06/10 07:25:56;;;;;;;11.38;8.13;;;;;;;26.00;42.72;101412.09;4982707;28;20381;-83
2023/06/10 07:28:21;;;;;;;11.73;8.80;;;;;;;26.43;41.30;101414.22;4985625;28;20390;-82
2023/06/10 07:30:46;;;;;;;10.43;8.55;;;;;;;26.80;39.90;101414.13;4989559;28;20289;-83
2023/06/10 07:33:12;;;;;;;10.95;8.07;;;;;;;27.54;39.98;101421.13;4981814;28;20038;-82
2023/06/10 07:35:37;;;;;;;10.77;8.65;;;;;;;27.84;38.70;101411.69;4976521;28;20030;-82
2023/06/10 07:38:02;;;;;;;9.35;7.88;;;;;;;27.91;40.00;101414.59;4985386;28;20642;-83
2023/06/10 07:40:27;;;;;;;10.35;7.82;;;;;;;28.41;38.26;101417.44;4984523;28;20030;-82
2023/06/10 07:42:53;;;;;;;9.73;8.23;;;;;;;28.94;36.28;101415.38;4971310;28;20022;-82
2023/06/10 07:45:18;;;;;;;13.57;9.20;;;;;;;29.17;36.03;101415.59;4986052;28;20510;-83
2023/06/10 07:47:44;;;;;;;11.88;7.50;;;;;;;29.43;36.86;101415.44;4989166;28;20452;-82
2023/06/10 07:50:10;;;;;;;11.50;8.02;;;;;;;29.53;35.58;101413.41;4990298;28;20029;-83
2023/06/10 07:52:35;;;;;;;9.35;7.38;;;;;;;29.83;36.23;101417.28;4984559;28;20034;-82
2023/06/10 07:55:01;;;;;;;9.45;7.55;;;;;;;30.16;33.59;101417.22;4987000;28;20374;-82
2023/06/10 07:57:26;;;;;;;10.15;8.32;;;;;;;30.31;34.06;101418.22;4988873;28;20068;-83
2023/06/10 07:59:51;;;;;;;9.60;7.47;;;;;;;30.55;32.68;101416.41;4985918;28;20030;-82
2023/06/10 08:02:17;;;;;;;8.48;6.95;;;;;;;31.14;33.98;101424.91;4985199;28;20030;-83
2023/06/10 08:04:42;;;;;;;11.30;7.72;;;;;;;31.75;31.27;101415.69;4982227;28;20038;-82
2023/06/10 08:07:07;;;;;;;9.25;7.30;;;;;;;31.97;29.72;101410.38;4975321;28;20030;-83
2023/06/10 08:09:33;;;;;;;9.35;6.95;;;;;;;31.66;30.83;101410.47;4973286;28;20087;-83
2023/06/10 08:11:58;;;;;;;10.18;7.38;;;;;;;31.74;30.65;101418.59;4990320;28;20030;-82
2023/06/10 08:14:23;;;;;;;10.37;6.73;;;;;;;31.86;29.85;101419.88;4989871;28;20058;-82
2023/06/10 08:16:49;;;;;;;9.18;6.57;;;;;;;32.15;29.65;101412.72;4981692;28;20278;-83
2023/06/10 08:19:14;;;;;;;8.88;6.43;;;;;;;31.96;29.48;101414.97;4987372;28;20030;-83
2023/06/10 08:21:39;;;;;;;8.73;7.03;;;;;;;32.43;29.66;101412.91;4990846;28;20025;-83
2023/06/10 08:24:09;;;;;;;9.55;6.70;;;;;;;33.11;29.66;101406.13;4997399;28;20041;-87
2023/06/10 08:26:34;;;;;;;8.00;6.82;;;;;;;33.69;26.83;101411.50;4983519;28;20034;-86
2023/06/10 08:29:00;;;;;;;8.32;6.10;;;;;;;33.42;27.05;101411.25;4987666;28;20030;-87
2023/06/10 08:31:25;;;;;;;9.88;7.22;;;;;;;33.53;26.80;101412.66;4984415;28;20448;-87
2023/06/10 08:33:50;;;;;;;9.65;7.45;;;;;;;33.30;27.96;101412.00;4982643;28;20061;-87
2023/06/10 08:36:16;;;;;;;7.90;6.57;;;;;;;33.22;28.02;101418.44;4981236;28;20385;-87
2023/06/10 08:38:41;;;;;;;9.47;6.93;;;;;;;33.65;27.37;101418.41;4984361;28;20062;-87
2023/06/10 08:41:08;;;;;;;8.45;6.40;;;;;;;33.57;27.16;101408.44;4982302;28;20640;-84
2023/06/10 08:43:45;;;;;;;11.18;7.03;;;;;;;33.37;28.13;101419.22;4984791;28;20038;-85
2023/06/10 08:46:12;;;;;;;8.95;6.10;;;;;;;33.71;27.92;101417.59;4980476;28;20603;-86
2023/06/10 08:48:42;;;;;;;11.05;6.47;;;;;;;34.43;27.21;101410.88;4983967;28;20196;-86
2023/06/10 08:51:09;;;;;;;10.23;6.32;;;;;;;34.25;26.37;101419.66;4985522;28;20056;-85
2023/06/10 08:53:37;;;;;;;12.27;7.28;;;;;;;33.58;25.77;101418.38;4986559;28;20038;-85
2023/06/10 08:56:05;;;;;;;8.02;6.20;;;;;;;33.59;26.85;101417.31;4981250;28;20030;-86
2023/06/10 08:58:33;;;;;;;8.52;6.30;;;;;;;34.18;28.11;101424.25;4982075;28;20450;-86
2023/06/10 09:00:59;;;;;;;9.23;6.25;;;;;;;34.64;25.00;101423.66;4977945;28;20048;-85
2023/06/10 09:03:25;;;;;;;8.90;6.40;;;;;;;34.50;26.83;101420.84;4983034;28;20105;-85
2023/06/10 09:05:51;;;;;;;7.50;5.90;;;;;;;34.51;27.42;101416.25;4981018;28;20049;-86
2023/06/10 09:08:17;;;;;;;7.10;6.20;;;;;;;34.33;26.68;101410.44;4986919;28;20022;-86
2023/06/10 09:10:42;;;;;;;7.50;6.22;;;;;;;33.96;27.30;101418.03;4984648;28;20108;-88
2023/06/10 09:13:07;;;;;;;9.15;6.57;;;;;;;33.58;26.38;101417.53;4969762;28;20022;-87
2023/06/10 09:15:33;;;;;;;7.97;6.20;;;;;;;33.33;27.71;101415.16;4979817;28;20046;-88
2023/06/10 09:17:59;;;;;;;9.48;7.07;;;;;;;32.87;28.27;101417.41;4983257;28;20501;-87
2023/06/10 09:20:25;;;;;;;7.57;6.15;;;;;;;33.07;27.84;101407.56;4993760;28;20389;-87
2023/06/10 09:22:51;;;;;;;9.25;6.30;;;;;;;33.29;27.33;101411.13;4981599;28;20038;-87
2023/06/10 09:25:16;;;;;;;8.00;5.78;;;;;;;33.48;27.22;101407.75;4984157;28;20030;-87
2023/06/10 09:27:53;;;;;;;6.93;5.97;;;;;;;33.47;29.10;101405.19;4982629;28;20033;-87
2023/06/10 09:30:26;;;;;;;7.50;5.68;;;;;;;33.89;28.48;101414.34;4960082;28;20046;-87
2023/06/10 09:32:53;;;;;;;7.85;5.72;;;;;;;34.14;27.35;101412.88;4989863;28;20088;-86
2023/06/10 09:35:19;;;;;;;9.18;5.93;;;;;;;34.19;27.05;101415.00;4979741;28;20054;-86
2023/06/10 09:37:44;;;;;;;10.50;5.80;;;;;;;34.34;25.12;101410.22;4982026;28;20065;-87
2023/06/10 09:40:10;;;;;;;9.82;5.63;;;;;;;34.64;25.04;101407.19;4987822;28;20034;-82
2023/06/10 09:42:38;;;;;;;12.98;6.47;;;;;;;34.09;24.56;101411.75;4988357;28;20049;-83
2023/06/10 09:45:05;;;;;;;7.78;5.88;;;;;;;34.36;25.62;101410.84;4980364;28;21493;-85
2023/06/10 09:47:30;;;;;;;9.63;6.20;;;;;;;34.49;25.49;101405.44;4981957;28;20026;-85
2023/06/10 09:49:56;;;;;;;10.23;6.32;;;;;;;34.51;25.33;101405.25;4993647;28;20100;-86
2023/06/10 09:52:25;;;;;;;7.40;5.70;;;;;;;34.97;25.68;101408.13;4968128;28;20061;-86
2023/06/10 09:55:02;;;;;;;6.38;5.70;;;;;;;34.80;25.00;101405.97;4988808;28;20101;-85
2023/06/10 09:57:35;;;;;;;7.20;6.28;;;;;;;35.37;24.96;101401.84;4990639;28;20491;-85
2023/06/10 10:00:06;;;;;;;7.38;6.53;;;;;;;35.66;24.71;101395.91;4985670;28;20093;-86
2023/06/10 10:02:31;;;;;;;7.72;5.93;;;;;;;35.85;24.19;101399.69;4988750;28;20097;-86
2023/06/10 10:05:04;;;;;;;7.47;6.28;;;;;;;36.08;25.20;101393.72;4980622;28;20042;-86
2023/06/10 10:07:29;;;;;;;8.57;6.47;;;;;;;36.35;23.88;101388.97;4983865;28;20374;-84
2023/06/10 10:09:55;;;;;;;10.20;6.63;;;;;;;36.61;23.98;101390.78;4986182;28;20034;-86
2023/06/10 10:12:20;;;;;;;13.82;6.93;;;;;;;36.60;23.37;101391.00;4967318;28;20026;-85
2023/06/10 10:14:47;;;;;;;8.23;5.65;;;;;;;36.66;23.88;101388.22;4967049;28;20042;-84
2023/06/10 10:17:15;;;;;;;7.95;6.38;;;;;;;36.97;23.55;101381.88;4978678;28;20126;-85
2023/06/10 10:19:48;;;;;;;8.57;6.05;;;;;;;36.34;24.32;101387.28;4983363;28;20084;-85
2023/06/10 10:22:40;;;;;;;8.40;5.90;;;;;;;36.25;25.22;101392.19;4983959;28;20034;-84
2023/06/10 10:25:21;;;;;;;8.38;5.75;;;;;;;36.72;24.90;101387.31;4970738;28;20046;-84
2023/06/10 10:28:12;;;;;;;7.90;6.00;;;;;;;36.73;24.49;101377.97;4979078;28;20030;-84
2023/06/10 10:30:44;;;;;;;9.85;6.32;;;;;;;36.27;25.13;101380.94;4979035;28;20042;-85
2023/06/10 10:33:16;;;;;;;6.72;6.07;;;;;;;36.87;23.98;101380.66;4988069;28;20033;-84
2023/06/10 10:35:43;;;;;;;13.27;6.18;;;;;;;37.22;21.40;101376.41;4985335;28;20042;-84
2023/06/10 10:38:09;;;;;;;9.20;6.13;;;;;;;37.33;22.24;101379.47;4987994;28;20381;-82
2023/06/10 10:40:36;;;;;;;6.80;6.18;;;;;;;37.44;21.83;101387.88;4943010;28;20094;-82
2023/06/10 10:43:02;;;;;;;7.07;5.97;;;;;;;37.57;22.77;101383.31;4979542;28;20476;-82
2023/06/10 10:45:28;;;;;;;6.50;5.93;;;;;;;37.07;22.78;101380.53;4981378;28;20080;-82
2023/06/10 10:47:56;;;;;;;9.52;6.00;;;;;;;36.80;22.02;101377.97;4984306;28;20541;-82
2023/06/10 10:50:21;;;;;;;6.70;6.00;;;;;;;36.68;22.95;101379.72;4976659;28;20023;-82
2023/06/10 10:52:56;;;;;;;6.93;6.28;;;;;;;37.24;22.91;101376.16;4971019;28;20141;-82
2023/06/10 10:55:26;;;;;;;8.63;6.00;;;;;;;37.58;21.97;101366.53;4979751;28;20085;-82
2023/06/10 10:57:55;;;;;;;8.48;5.82;;;;;;;37.33;22.73;101374.81;4967868;28;20068;-82
2023/06/10 11:00:30;;;;;;;9.43;6.20;;;;;;;37.45;21.16;101367.53;4988080;28;20169;-83
2023/06/10 11:03:02;;;;;;;7.47;6.18;;;;;;;37.79;21.85;101368.88;4978731;28;20034;-84
2023/06/10 11:05:44;;;;;;;7.45;5.70;;;;;;;37.84;21.58;101365.44;4981897;28;20035;-83
2023/06/10 11:08:10;;;;;;;9.00;6.18;;;;;;;37.91;20.50;101368.97;4985121;28;20054;-83
2023/06/10 11:10:40;;;;;;;6.45;5.80;;;;;;;37.61;21.68;101368.00;4981083;28;20023;-83
2023/06/10 11:13:13;;;;;;;7.80;5.88;;;;;;;37.97;21.42;101368.06;4983981;28;20042;-84